Time;durP1;ratioP1;P1;durP2;ratioP2;P2;SDS_P1;SDS_P2;PMS_P1;PMS_P2;Temp;Humidity;BMP_temperature;BMP_pressure;BME280_temperature;BME280_humidity;BME280_pressure;Samples;Min_cycle;Max_cycle;Signal;HPM_P1;HPM_P2
2020/12/28 00:00:36;;;;;;;1.83;0.95;;;5.10;99.90;;;;;;5012584;28;20030;-56
2020/12/28 00:03:03;;;;;;;2.60;1.20;;;5.10;99.90;;;;;;5012557;28;20046;-56
2020/12/28 00:05:29;;;;;;;2.85;1.42;;;5.00;99.90;;;;;;5012311;28;20061;-56
2020/12/28 00:07:55;;;;;;;2.80;1.05;;;5.00;99.90;;;;;;5012275;28;20038;-57
2020/12/28 00:10:22;;;;;;;2.88;1.30;;;5.00;99.90;;;;;;5012455;28;20045;-56
2020/12/28 00:12:49;;;;;;;3.10;1.25;;;5.00;99.90;;;;;;5012291;28;20112;-52
2020/12/28 00:15:21;;;;;;;6.00;1.90;;;5.00;99.90;;;;;;5012481;28;20034;-56
2020/12/28 00:17:53;;;;;;;2.45;1.20;;;5.00;99.90;;;;;;5012161;28;20042;-51
2020/12/28 00:20:23;;;;;;;2.97;1.45;;;5.10;99.90;;;;;;5012461;28;20034;-55
2020/12/28 00:22:49;;;;;;;2.88;1.40;;;5.10;99.90;;;;;;5012584;28;20133;-57
2020/12/28 00:25:25;;;;;;;2.85;1.40;;;5.10;99.90;;;;;;5012407;28;20029;-56
2020/12/28 00:27:52;;;;;;;2.45;1.10;;;5.10;99.90;;;;;;5012262;28;20040;-58
2020/12/28 00:30:18;;;;;;;2.63;1.25;;;5.10;99.90;;;;;;5012386;28;20072;-57
2020/12/28 00:32:44;;;;;;;2.28;1.40;;;5.10;99.90;;;;;;5012302;28;20088;-58
2020/12/28 00:35:11;;;;;;;2.72;1.30;;;5.10;99.90;;;;;;5012402;28;20037;-55
2020/12/28 00:37:38;;;;;;;1.90;1.20;;;5.20;99.90;;;;;;5012178;28;20026;-56
2020/12/28 00:40:07;;;;;;;3.95;1.30;;;5.10;99.90;;;;;;5012017;28;20025;-57
2020/12/28 00:42:33;;;;;;;3.42;1.20;;;5.10;99.90;;;;;;5012226;28;20038;-57
2020/12/28 00:45:00;;;;;;;1.58;1.10;;;5.10;99.90;;;;;;5012098;28;20029;-56
2020/12/28 00:47:26;;;;;;;3.25;1.30;;;5.10;99.90;;;;;;5012163;28;20045;-57
2020/12/28 00:49:52;;;;;;;1.70;0.90;;;5.20;99.90;;;;;;5011897;28;20026;-56
2020/12/28 00:52:18;;;;;;;2.58;1.33;;;5.20;99.90;;;;;;5012192;28;20044;-55
2020/12/28 00:54:44;;;;;;;2.72;1.30;;;5.30;99.90;;;;;;5011977;28;20037;-55
2020/12/28 00:57:10;;;;;;;2.97;1.30;;;5.30;99.90;;;;;;5012026;28;20053;-57
2020/12/28 00:59:36;;;;;;;2.40;0.93;;;5.30;99.90;;;;;;5012084;28;20045;-57
2020/12/28 01:02:02;;;;;;;3.00;1.33;;;5.40;99.90;;;;;;5012000;28;20053;-58
2020/12/28 01:04:28;;;;;;;1.98;1.00;;;5.30;99.90;;;;;;5012027;28;20109;-56
2020/12/28 01:06:54;;;;;;;1.25;0.82;;;5.40;99.90;;;;;;5011931;28;20038;-57
2020/12/28 01:09:20;;;;;;;1.98;0.93;;;5.50;99.90;;;;;;5011976;28;20034;-57
2020/12/28 01:11:46;;;;;;;1.67;0.70;;;5.40;99.90;;;;;;5011872;28;20058;-55
2020/12/28 01:14:13;;;;;;;1.13;0.75;;;5.60;99.90;;;;;;5013269;28;20081;-57
2020/12/28 01:16:42;;;;;;;0.93;0.60;;;5.80;99.90;;;;;;5015000;28;20050;-57
2020/12/28 01:19:08;;;;;;;0.77;0.50;;;5.80;99.90;;;;;;5015356;28;20030;-57
2020/12/28 01:21:34;;;;;;;0.90;0.50;;;5.90;99.90;;;;;;5015174;28;20034;-55
2020/12/28 01:23:59;;;;;;;0.38;0.25;;;5.90;99.90;;;;;;5015016;28;20057;-55
2020/12/28 01:26:25;;;;;;;0.50;0.30;;;6.00;99.90;;;;;;5015314;28;20033;-57
2020/12/28 01:28:51;;;;;;;0.30;0.22;;;6.10;99.90;;;;;;5015070;28;20034;-57
2020/12/28 01:31:17;;;;;;;0.60;0.25;;;6.10;99.90;;;;;;5015240;28;20034;-57
2020/12/28 01:33:43;;;;;;;0.75;0.35;;;6.10;99.90;;;;;;5015030;28;20105;-52
2020/12/28 01:36:09;;;;;;;0.90;0.30;;;6.10;99.90;;;;;;5015192;28;20030;-52
2020/12/28 01:38:35;;;;;;;0.40;0.20;;;6.10;99.90;;;;;;5015127;28;20036;-56
2020/12/28 01:41:01;;;;;;;0.50;0.25;;;6.10;99.90;;;;;;5014690;28;20037;-57
2020/12/28 01:43:28;;;;;;;0.52;0.38;;;6.10;99.90;;;;;;5014762;28;20034;-57
2020/12/28 01:45:56;;;;;;;1.33;0.40;;;6.10;99.90;;;;;;5014792;28;20029;-57
2020/12/28 01:48:22;;;;;;;0.77;0.32;;;6.00;99.90;;;;;;5014864;28;20084;-57
2020/12/28 01:50:48;;;;;;;0.57;0.40;;;6.00;99.90;;;;;;5014444;28;20054;-57
2020/12/28 01:53:17;;;;;;;0.88;0.40;;;6.00;99.90;;;;;;5013620;28;20029;-56
2020/12/28 01:55:47;;;;;;;0.63;0.40;;;6.00;99.90;;;;;;5013459;28;20034;-56
2020/12/28 01:58:14;;;;;;;0.75;0.43;;;6.00;99.90;;;;;;5014462;28;20037;-57
2020/12/28 02:00:40;;;;;;;0.98;0.52;;;6.00;99.90;;;;;;5014732;28;20033;-57
2020/12/28 02:03:09;;;;;;;2.95;0.88;;;6.10;99.90;;;;;;5014563;28;20081;-57
2020/12/28 02:05:37;;;;;;;1.90;0.88;;;6.00;99.90;;;;;;5014545;28;20088;-56
2020/12/28 02:08:03;;;;;;;2.40;0.82;;;6.00;99.90;;;;;;5013001;28;20035;-54
2020/12/28 02:10:29;;;;;;;1.90;0.80;;;6.00;99.90;;;;;;5014495;28;20049;-57
2020/12/28 02:12:55;;;;;;;3.47;0.90;;;6.00;99.90;;;;;;5014285;28;20030;-56
2020/12/28 02:15:21;;;;;;;2.97;0.57;;;6.00;99.90;;;;;;5014397;28;20038;-56
2020/12/28 02:17:47;;;;;;;1.05;0.68;;;6.00;99.90;;;;;;5014133;28;20092;-56
2020/12/28 02:20:13;;;;;;;3.10;0.43;;;6.00;99.90;;;;;;5014055;28;20026;-56
2020/12/28 02:22:40;;;;;;;1.10;0.25;;;6.00;99.90;;;;;;5014344;28;20030;-57
2020/12/28 02:25:06;;;;;;;1.08;0.50;;;6.00;99.90;;;;;;5013369;28;20030;-57
2020/12/28 02:27:32;;;;;;;0.40;0.35;;;6.10;99.90;;;;;;5013712;28;20042;-56
2020/12/28 02:29:58;;;;;;;0.65;0.32;;;6.10;99.90;;;;;;5013751;28;20026;-54
2020/12/28 02:32:24;;;;;;;0.77;0.50;;;6.10;99.90;;;;;;5014129;28;20038;-56
2020/12/28 02:34:50;;;;;;;0.22;0.22;;;6.10;99.90;;;;;;5014078;28;20030;-57
2020/12/28 02:37:16;;;;;;;0.45;0.32;;;6.00;99.90;;;;;;5013970;28;20038;-56
2020/12/28 02:39:42;;;;;;;1.38;0.30;;;6.00;99.90;;;;;;5014005;28;20108;-57
2020/12/28 02:42:08;;;;;;;0.60;0.43;;;6.10;99.90;;;;;;5013756;28;20053;-55
2020/12/28 02:44:34;;;;;;;0.22;0.20;;;6.10;99.90;;;;;;5013876;28;20100;-56
2020/12/28 02:47:00;;;;;;;3.42;0.43;;;6.10;99.90;;;;;;5013717;28;20026;-55
2020/12/28 02:49:25;;;;;;;0.60;0.30;;;6.10;99.90;;;;;;5013708;28;20105;-56
2020/12/28 02:51:51;;;;;;;0.30;0.30;;;6.10;99.90;;;;;;5013677;28;20034;-56
2020/12/28 02:54:17;;;;;;;0.63;0.30;;;6.10;99.90;;;;;;5013439;28;20026;-56
2020/12/28 02:56:43;;;;;;;0.65;0.38;;;6.10;99.90;;;;;;5013614;28;20038;-55
2020/12/28 02:59:09;;;;;;;0.30;0.10;;;6.10;99.90;;;;;;5013427;28;20034;-56
2020/12/28 03:01:37;;;;;;;0.38;0.22;;;6.10;99.90;;;;;;5013623;28;20037;-55
2020/12/28 03:04:06;;;;;;;1.08;0.30;;;6.10;99.90;;;;;;5013415;28;20087;-56
2020/12/28 03:06:32;;;;;;;0.20;0.20;;;6.10;99.90;;;;;;5013474;28;20080;-55
2020/12/28 03:08:58;;;;;;;0.20;0.20;;;6.10;99.90;;;;;;5013071;28;20109;-55
2020/12/28 03:11:24;;;;;;;0.22;0.20;;;6.00;99.90;;;;;;5013396;28;20606;-56
2020/12/28 03:13:50;;;;;;;0.20;0.20;;;6.10;99.90;;;;;;5013245;28;20026;-56
2020/12/28 03:16:16;;;;;;;0.25;0.25;;;6.00;99.90;;;;;;5012810;28;20060;-56
2020/12/28 03:18:42;;;;;;;0.22;0.17;;;6.00;99.90;;;;;;5013233;28;20037;-55
2020/12/28 03:21:08;;;;;;;0.30;0.20;;;6.00;99.90;;;;;;5011885;28;20042;-56
2020/12/28 03:23:34;;;;;;;4.63;0.50;;;6.00;99.90;;;;;;5012880;28;20121;-55
2020/12/28 03:26:00;;;;;;;0.52;0.28;;;6.00;99.90;;;;;;5013095;28;20447;-55
2020/12/28 03:28:26;;;;;;;1.23;0.30;;;6.00;99.90;;;;;;5013080;28;20099;-56
2020/12/28 03:30:52;;;;;;;0.95;0.30;;;6.00;99.90;;;;;;5012979;28;20030;-56
2020/12/28 03:33:18;;;;;;;0.85;0.20;;;5.90;99.90;;;;;;5013082;28;20040;-56
2020/12/28 03:35:44;;;;;;;0.52;0.30;;;5.80;99.90;;;;;;5012958;28;20108;-55
2020/12/28 03:38:10;;;;;;;1.48;0.50;;;5.90;99.90;;;;;;5012546;28;20065;-56
2020/12/28 03:40:36;;;;;;;1.45;0.35;;;5.90;99.90;;;;;;5012871;28;20058;-55
2020/12/28 03:43:02;;;;;;;0.60;0.40;;;5.90;99.90;;;;;;5012740;28;20033;-53
2020/12/28 03:45:28;;;;;;;0.63;0.40;;;5.90;99.90;;;;;;5012823;28;20030;-56
2020/12/28 03:47:54;;;;;;;0.40;0.30;;;5.80;99.90;;;;;;5012703;28;20045;-55
2020/12/28 03:50:20;;;;;;;0.85;0.60;;;5.80;99.90;;;;;;5012729;28;20060;-56
2020/12/28 03:52:45;;;;;;;1.70;0.60;;;5.70;99.90;;;;;;5012773;28;20022;-53
2020/12/28 03:55:12;;;;;;;1.70;0.90;;;5.60;99.90;;;;;;5012561;28;20044;-55
2020/12/28 03:57:38;;;;;;;1.80;0.85;;;5.50;99.90;;;;;;5012627;28;20037;-56
2020/12/28 04:00:04;;;;;;;2.22;0.90;;;5.50;99.90;;;;;;5012474;28;20112;-57
2020/12/28 04:02:30;;;;;;;5.18;1.20;;;5.60;99.90;;;;;;5012357;28;20045;-56
2020/12/28 04:04:56;;;;;;;1.70;0.85;;;5.60;99.90;;;;;;5012438;28;20033;-57
2020/12/28 04:07:22;;;;;;;2.00;0.90;;;5.60;99.90;;;;;;5012529;28;20048;-57
2020/12/28 04:09:48;;;;;;;1.40;0.82;;;5.70;99.90;;;;;;5012525;28;20109;-57
2020/12/28 04:12:14;;;;;;;2.20;0.80;;;5.70;99.90;;;;;;5012447;28;20113;-54
2020/12/28 04:14:40;;;;;;;1.27;0.65;;;5.80;99.90;;;;;;5012544;28;20102;-55
2020/12/28 04:17:06;;;;;;;1.30;0.70;;;5.70;99.90;;;;;;5011940;28;20049;-57
2020/12/28 04:19:32;;;;;;;1.58;0.80;;;5.70;99.90;;;;;;5012477;28;20030;-55
2020/12/28 04:21:58;;;;;;;1.50;0.70;;;5.60;99.90;;;;;;5012348;28;20069;-56
2020/12/28 04:24:24;;;;;;;1.55;0.60;;;5.60;99.90;;;;;;5012519;28;20030;-56
2020/12/28 04:26:50;;;;;;;1.42;0.82;;;5.60;99.90;;;;;;5012546;28;20113;-57
2020/12/28 04:29:16;;;;;;;0.95;0.50;;;5.50;99.90;;;;;;5012276;28;20451;-57
2020/12/28 04:31:42;;;;;;;0.40;0.30;;;5.50;99.90;;;;;;5012403;28;20060;-57
2020/12/28 04:34:09;;;;;;;1.65;0.50;;;5.60;99.90;;;;;;5012282;28;20045;-57
2020/12/28 04:36:38;;;;;;;1.38;0.50;;;5.50;99.90;;;;;;5012046;28;20036;-57
2020/12/28 04:39:06;;;;;;;1.75;0.40;;;5.50;99.90;;;;;;5011849;28;20113;-57
2020/12/28 04:41:32;;;;;;;0.98;0.40;;;5.60;99.90;;;;;;5012307;28;20030;-55
2020/12/28 04:43:58;;;;;;;1.17;0.40;;;5.70;99.90;;;;;;5012093;28;20107;-57
2020/12/28 04:46:29;;;;;;;0.68;0.43;;;5.70;99.90;;;;;;5012217;28;20026;-53
2020/12/28 04:48:56;;;;;;;0.53;0.40;;;5.70;99.90;;;;;;5012937;28;20080;-56
2020/12/28 04:51:25;;;;;;;1.05;0.60;;;5.60;99.90;;;;;;5015931;28;20116;-56
2020/12/28 04:53:52;;;;;;;0.82;0.52;;;5.70;99.90;;;;;;5015937;28;20062;-54
2020/12/28 04:56:20;;;;;;;0.90;0.52;;;5.70;99.90;;;;;;5015609;28;20033;-57
2020/12/28 04:58:48;;;;;;;0.95;0.38;;;5.70;99.90;;;;;;5015821;28;20030;-56
2020/12/28 05:01:14;;;;;;;0.65;0.40;;;5.80;99.90;;;;;;5015658;28;20030;-53
2020/12/28 05:03:40;;;;;;;0.65;0.32;;;5.80;99.90;;;;;;5015783;28;20095;-56
2020/12/28 05:06:10;;;;;;;0.77;0.40;;;5.70;99.90;;;;;;5015590;28;20037;-56
2020/12/28 05:08:43;;;;;;;1.15;0.60;;;5.60;99.90;;;;;;5014485;28;20033;-54
2020/12/28 05:11:13;;;;;;;0.85;0.40;;;5.50;99.90;;;;;;5015528;28;20026;-57
2020/12/28 05:13:39;;;;;;;0.70;0.40;;;5.60;99.90;;;;;;5015599;28;20022;-57
2020/12/28 05:16:05;;;;;;;0.75;0.30;;;5.60;99.90;;;;;;5015067;28;20049;-57
2020/12/28 05:18:33;;;;;;;0.43;0.43;;;5.50;99.90;;;;;;5015488;28;20084;-56
2020/12/28 05:20:59;;;;;;;0.32;0.30;;;5.50;99.90;;;;;;5015332;28;20034;-53
2020/12/28 05:23:26;;;;;;;0.50;0.40;;;5.40;99.90;;;;;;5015408;28;20444;-55
2020/12/28 05:25:52;;;;;;;0.93;0.50;;;5.40;99.90;;;;;;5015344;28;20044;-54
2020/12/28 05:28:27;;;;;;;0.88;0.40;;;5.40;99.90;;;;;;5015223;28;20057;-53
2020/12/28 05:30:59;;;;;;;0.85;0.43;;;5.40;99.90;;;;;;5014996;28;20026;-54
2020/12/28 05:33:32;;;;;;;1.55;0.50;;;5.40;99.90;;;;;;5015261;28;20029;-56
2020/12/28 05:35:58;;;;;;;1.55;0.60;;;5.40;99.90;;;;;;5015007;28;20042;-55
2020/12/28 05:38:27;;;;;;;0.80;0.50;;;5.40;99.90;;;;;;5015033;28;20037;-54
2020/12/28 05:41:04;;;;;;;1.02;0.63;;;5.40;99.90;;;;;;5013608;28;20026;-53
2020/12/28 05:43:31;;;;;;;0.80;0.40;;;5.40;99.90;;;;;;5014994;28;20089;-55
2020/12/28 05:45:58;;;;;;;2.25;0.30;;;5.50;99.90;;;;;;5014759;28;20073;-51
2020/12/28 05:48:25;;;;;;;1.00;0.50;;;5.50;99.90;;;;;;5014985;28;20034;-56
2020/12/28 05:50:57;;;;;;;4.47;0.77;;;5.50;99.90;;;;;;5014912;28;20046;-56
2020/12/28 05:53:25;;;;;;;0.90;0.50;;;5.50;99.90;;;;;;5014939;28;20026;-56
2020/12/28 05:55:53;;;;;;;3.20;0.80;;;5.50;99.90;;;;;;5014765;28;20040;-53
2020/12/28 05:58:20;;;;;;;0.98;0.77;;;5.40;99.90;;;;;;5014570;28;20037;-54
2020/12/28 06:00:48;;;;;;;2.35;0.85;;;5.40;99.90;;;;;;5014526;28;20054;-56
2020/12/28 06:03:25;;;;;;;1.15;0.70;;;5.50;99.90;;;;;;5014542;28;20092;-56
2020/12/28 06:05:55;;;;;;;1.80;1.00;;;5.60;99.90;;;;;;5014458;28;20030;-56
2020/12/28 06:08:22;;;;;;;0.80;0.60;;;5.60;99.90;;;;;;5014410;28;20080;-56
2020/12/28 06:10:49;;;;;;;1.35;0.80;;;5.60;99.90;;;;;;5014589;28;20054;-54
2020/12/28 06:13:25;;;;;;;1.55;0.90;;;5.60;99.90;;;;;;5014467;28;20030;-56
2020/12/28 06:16:04;;;;;;;1.27;0.88;;;5.50;99.90;;;;;;5012669;28;20084;-57
2020/12/28 06:18:31;;;;;;;1.35;0.95;;;5.50;99.90;;;;;;5014258;28;20034;-57
2020/12/28 06:20:57;;;;;;;1.38;0.80;;;5.50;99.90;;;;;;5014200;28;20026;-56
2020/12/28 06:23:29;;;;;;;2.78;0.80;;;5.50;99.90;;;;;;5014150;28;20079;-55
2020/12/28 06:25:55;;;;;;;6.55;1.52;;;5.50;99.90;;;;;;5014192;28;20034;-54
2020/12/28 06:28:25;;;;;;;2.42;0.93;;;5.50;99.90;;;;;;5014013;28;20026;-56
2020/12/28 06:30:52;;;;;;;1.27;0.90;;;5.60;99.90;;;;;;5014058;28;20129;-56
2020/12/28 06:33:18;;;;;;;2.35;1.10;;;5.60;99.90;;;;;;5013606;28;20038;-56
2020/12/28 06:35:44;;;;;;;2.92;1.20;;;5.60;99.90;;;;;;5013923;28;20083;-56
2020/12/28 06:38:10;;;;;;;1.25;0.98;;;5.70;99.90;;;;;;5013815;28;20030;-55
2020/12/28 06:40:39;;;;;;;1.30;0.82;;;5.70;99.90;;;;;;5013971;28;20083;-56
2020/12/28 06:43:17;;;;;;;2.78;1.17;;;5.60;99.90;;;;;;5013664;28;20026;-55
2020/12/28 06:45:53;;;;;;;2.63;1.00;;;5.70;99.90;;;;;;5013911;28;20057;-55
2020/12/28 06:48:24;;;;;;;1.67;1.08;;;5.80;99.90;;;;;;5013705;28;20059;-56
2020/12/28 06:50:55;;;;;;;2.25;1.27;;;5.80;99.90;;;;;;5013793;28;20044;-56
2020/12/28 06:53:27;;;;;;;4.13;1.30;;;5.70;99.90;;;;;;5013571;28;20037;-56
2020/12/28 06:55:53;;;;;;;1.75;1.05;;;5.70;99.90;;;;;;5013425;28;20029;-54
2020/12/28 06:58:19;;;;;;;2.20;1.30;;;5.70;99.90;;;;;;5013452;28;20036;-56
2020/12/28 07:00:45;;;;;;;1.83;1.10;;;5.80;99.90;;;;;;5013619;28;20045;-56
2020/12/28 07:03:17;;;;;;;2.70;1.35;;;5.80;99.90;;;;;;5012011;28;20171;-56
2020/12/28 07:05:43;;;;;;;1.60;1.13;;;5.70;99.90;;;;;;5013006;28;20030;-54
2020/12/28 07:08:10;;;;;;;2.72;1.55;;;5.70;99.90;;;;;;5013218;28;20125;-55
2020/12/28 07:10:36;;;;;;;3.70;1.73;;;5.60;99.90;;;;;;5011745;28;20022;-55
2020/12/28 07:13:04;;;;;;;4.00;1.60;;;5.50;99.90;;;;;;5012422;28;20034;-55
2020/12/28 07:15:31;;;;;;;2.83;1.90;;;5.50;99.90;;;;;;5012835;28;20040;-55
2020/12/28 07:18:05;;;;;;;3.45;1.90;;;5.50;99.90;;;;;;5009909;28;20049;-56
2020/12/28 07:20:31;;;;;;;3.13;1.80;;;5.50;99.90;;;;;;5011699;28;20026;-56
2020/12/28 07:22:57;;;;;;;3.58;1.98;;;5.40;99.90;;;;;;5011957;28;20044;-55
2020/12/28 07:25:23;;;;;;;3.63;1.98;;;5.40;99.90;;;;;;5011561;28;20030;-56
2020/12/28 07:27:51;;;;;;;2.83;1.83;;;5.40;99.90;;;;;;5012190;28;20088;-56
2020/12/28 07:30:18;;;;;;;5.53;2.40;;;5.40;99.90;;;;;;5012268;28;20041;-55
2020/12/28 07:32:44;;;;;;;2.97;1.75;;;5.30;99.90;;;;;;5011216;28;20030;-57
2020/12/28 07:35:10;;;;;;;6.50;1.63;;;5.30;99.90;;;;;;5012335;28;20022;-56
2020/12/28 07:37:41;;;;;;;3.85;2.08;;;5.30;99.90;;;;;;5012299;28;20061;-56
2020/12/28 07:40:08;;;;;;;2.45;1.55;;;5.30;99.90;;;;;;5012231;28;20033;-55
2020/12/28 07:42:34;;;;;;;5.00;1.70;;;5.30;99.90;;;;;;5011039;28;20061;-55
2020/12/28 07:45:06;;;;;;;4.28;2.13;;;5.30;99.90;;;;;;5012260;28;20053;-56
2020/12/28 07:47:50;;;;;;;;;;;5.20;99.90;;;;;;5011622;28;20034;-56
2020/12/28 07:50:17;;;;;;;4.35;1.92;;;5.20;99.90;;;;;;5012576;28;19921;-57
2020/12/28 07:53:12;;;;;;;3.00;1.65;;;5.20;99.90;;;;;;5011484;28;20022;-56
2020/12/28 07:56:03;;;;;;;5.00;2.13;;;5.20;99.90;;;;;;5012279;28;20101;-57
2020/12/28 07:58:57;;;;;;;5.80;2.38;;;5.10;99.90;;;;;;5008367;28;20042;-56
2020/12/28 08:01:34;;;;;;;3.42;1.98;;;5.00;99.90;;;;;;5012486;28;20042;-58
2020/12/28 08:04:03;;;;;;;4.68;2.60;;;5.00;99.90;;;;;;5011021;28;20125;-56
2020/12/28 08:06:29;;;;;;;6.45;2.70;;;4.90;99.90;;;;;;5011966;28;20071;-55
2020/12/28 08:09:05;;;;;;;5.10;2.83;;;4.90;99.90;;;;;;5012479;28;20053;-55
2020/12/28 08:11:32;;;;;;;4.57;2.38;;;4.90;99.90;;;;;;5012296;28;20501;-53
2020/12/28 08:14:07;;;;;;;4.50;2.53;;;4.90;99.90;;;;;;5012406;28;20037;-55
2020/12/28 08:16:34;;;;;;;4.57;2.65;;;4.80;99.90;;;;;;5010901;28;20042;-51
2020/12/28 08:18:59;;;;;;;4.28;2.55;;;4.80;99.90;;;;;;5012403;28;20109;-54
2020/12/28 08:21:37;;;;;;;3.65;2.60;;;4.80;99.90;;;;;;5011942;28;20188;-53
2020/12/28 08:24:03;;;;;;;3.90;2.38;;;4.90;99.90;;;;;;5012508;28;20117;-55
2020/12/28 08:26:29;;;;;;;3.33;2.15;;;4.90;99.90;;;;;;5015762;28;20180;-53
2020/12/28 08:28:59;;;;;;;4.10;2.50;;;5.00;99.90;;;;;;5016283;28;20026;-56
2020/12/28 08:31:31;;;;;;;4.65;2.88;;;5.00;99.90;;;;;;5014538;28;20034;-56
2020/12/28 08:34:08;;;;;;;5.78;2.70;;;5.00;99.90;;;;;;5016195;28;20030;-55
2020/12/28 08:36:40;;;;;;;5.65;2.95;;;5.00;99.90;;;;;;5016076;28;20029;-55
2020/12/28 08:39:20;;;;;;;4.45;2.40;;;5.00;99.90;;;;;;5016115;28;20030;-54
2020/12/28 08:41:54;;;;;;;6.13;2.72;;;5.00;99.90;;;;;;5015572;28;20038;-55
2020/12/28 08:44:29;;;;;;;4.63;2.50;;;5.10;99.90;;;;;;5014690;28;20037;-55
2020/12/28 08:46:56;;;;;;;6.72;3.42;;;5.10;99.90;;;;;;5015482;28;20045;-55
2020/12/28 08:49:26;;;;;;;3.40;2.17;;;5.10;99.90;;;;;;5015163;28;20064;-54
2020/12/28 08:51:53;;;;;;;4.27;2.10;;;5.10;99.90;;;;;;5015455;28;20037;-55
2020/12/28 08:54:28;;;;;;;3.85;2.22;;;5.20;99.90;;;;;;5015471;28;20133;-52
2020/12/28 08:56:55;;;;;;;2.80;1.58;;;5.20;99.90;;;;;;5015601;28;20061;-53
2020/12/28 08:59:21;;;;;;;2.90;1.83;;;5.20;99.90;;;;;;5015329;28;20041;-55
2020/12/28 09:01:54;;;;;;;2.78;1.48;;;5.30;99.90;;;;;;5014357;28;20042;-56
2020/12/28 09:04:24;;;;;;;2.67;1.60;;;5.30;99.90;;;;;;5013183;28;20041;-52
2020/12/28 09:06:51;;;;;;;2.85;1.55;;;5.30;99.90;;;;;;4999009;28;20030;-55
2020/12/28 09:09:18;;;;;;;2.92;1.30;;;5.30;99.90;;;;;;4995459;28;20105;-51
2020/12/28 09:11:45;;;;;;;2.75;1.33;;;5.30;99.90;;;;;;4995883;28;20037;-56
2020/12/28 09:14:11;;;;;;;1.85;1.10;;;5.40;99.90;;;;;;4995770;28;20034;-56
2020/12/28 09:16:38;;;;;;;1.42;0.88;;;5.30;99.90;;;;;;4995254;28;20054;-55
2020/12/28 09:19:05;;;;;;;2.30;1.20;;;5.30;99.90;;;;;;4995827;28;20030;-55
2020/12/28 09:21:31;;;;;;;2.22;1.33;;;5.40;99.90;;;;;;4995265;28;20038;-56
2020/12/28 09:23:58;;;;;;;2.03;1.08;;;5.40;99.90;;;;;;4995332;28;20034;-53
2020/12/28 09:26:23;;;;;;;2.03;1.00;;;5.50;99.90;;;;;;4994918;28;20037;-58
2020/12/28 09:28:49;;;;;;;1.75;1.00;;;5.50;99.90;;;;;;4995398;28;20110;-56
2020/12/28 09:31:16;;;;;;;1.40;0.80;;;5.50;99.90;;;;;;4995482;28;20034;-55
2020/12/28 09:33:42;;;;;;;1.30;0.80;;;5.50;99.90;;;;;;4995479;28;20030;-56
2020/12/28 09:36:08;;;;;;;1.98;0.90;;;5.50;99.90;;;;;;4994972;28;20061;-53
2020/12/28 09:38:34;;;;;;;1.17;0.80;;;5.60;99.90;;;;;;4995441;28;20132;-56
2020/12/28 09:41:00;;;;;;;1.73;1.00;;;5.60;99.90;;;;;;4995370;28;20026;-56
2020/12/28 09:43:26;;;;;;;1.60;1.10;;;5.60;99.90;;;;;;4995071;28;20038;-56
2020/12/28 09:45:52;;;;;;;2.00;0.95;;;5.70;99.90;;;;;;4995301;28;20030;-52
2020/12/28 09:48:18;;;;;;;2.28;1.23;;;5.70;99.90;;;;;;4995082;28;20134;-54
2020/12/28 09:50:44;;;;;;;3.03;1.42;;;5.70;99.90;;;;;;4995221;28;20101;-54
2020/12/28 09:53:10;;;;;;;3.05;1.30;;;5.70;99.90;;;;;;4995200;28;20030;-55
2020/12/28 09:55:36;;;;;;;2.58;1.40;;;5.70;99.90;;;;;;4995000;28;20031;-54
2020/12/28 09:58:02;;;;;;;2.83;1.50;;;5.80;99.90;;;;;;4995016;28;20037;-55
2020/12/28 10:00:28;;;;;;;2.55;1.52;;;5.80;99.90;;;;;;4994875;28;20077;-56
2020/12/28 10:02:54;;;;;;;2.20;1.42;;;5.90;99.90;;;;;;4995083;28;20036;-54
2020/12/28 10:05:20;;;;;;;3.55;1.63;;;5.90;99.90;;;;;;4994654;28;20026;-53
2020/12/28 10:07:46;;;;;;;2.53;1.45;;;5.90;99.90;;;;;;4994738;28;20088;-54
2020/12/28 10:10:11;;;;;;;2.42;1.20;;;6.00;99.90;;;;;;4994843;28;20054;-56
2020/12/28 10:12:38;;;;;;;2.78;1.40;;;6.00;99.90;;;;;;4993459;28;20124;-54
2020/12/28 10:15:07;;;;;;;2.15;1.00;;;6.00;99.90;;;;;;4994827;28;20041;-53
2020/12/28 10:17:35;;;;;;;1.48;1.08;;;6.00;99.90;;;;;;4994072;28;20085;-55
2020/12/28 10:20:03;;;;;;;2.83;0.93;;;6.10;99.90;;;;;;4993608;28;20033;-53
2020/12/28 10:22:29;;;;;;;0.95;0.65;;;6.10;99.90;;;;;;4994603;28;20043;-56
2020/12/28 10:24:55;;;;;;;2.78;1.00;;;6.20;99.90;;;;;;4994593;28;20022;-55
2020/12/28 10:27:21;;;;;;;1.80;0.82;;;6.20;99.90;;;;;;4994345;28;20121;-55
2020/12/28 10:29:47;;;;;;;1.65;0.73;;;6.20;99.90;;;;;;4994265;28;20121;-57
2020/12/28 10:32:13;;;;;;;1.20;0.70;;;6.10;99.90;;;;;;4994185;28;20042;-56
2020/12/28 10:34:39;;;;;;;2.90;0.98;;;6.10;99.90;;;;;;4994366;28;20061;-55
2020/12/28 10:37:05;;;;;;;1.55;0.93;;;6.20;99.90;;;;;;4993690;28;20070;-56
2020/12/28 10:39:31;;;;;;;1.10;0.70;;;6.10;99.90;;;;;;4992670;28;20127;-52
2020/12/28 10:42:03;;;;;;;2.00;1.00;;;6.20;99.90;;;;;;4993688;28;20060;-56
2020/12/28 10:44:29;;;;;;;2.05;0.80;;;6.30;99.90;;;;;;4994205;28;20073;-52
2020/12/28 10:46:55;;;;;;;1.35;0.80;;;6.30;99.90;;;;;;4993274;28;20077;-57
2020/12/28 10:49:21;;;;;;;1.63;0.93;;;6.50;99.90;;;;;;4993899;28;20041;-57
2020/12/28 10:51:47;;;;;;;1.63;0.80;;;6.50;99.90;;;;;;4994150;28;20049;-56
2020/12/28 10:54:13;;;;;;;1.08;0.73;;;6.50;99.90;;;;;;4994029;28;20061;-58
2020/12/28 10:56:38;;;;;;;2.25;1.00;;;6.50;99.90;;;;;;4993776;28;20100;-56
2020/12/28 10:59:04;;;;;;;1.58;0.75;;;6.50;99.90;;;;;;4993974;28;20030;-58
2020/12/28 11:01:30;;;;;;;1.55;0.85;;;6.60;99.90;;;;;;5008755;28;20034;-57
2020/12/28 11:03:56;;;;;;;2.50;0.93;;;6.60;99.90;;;;;;4993995;28;20065;-59
2020/12/28 11:06:23;;;;;;;1.33;0.85;;;6.70;99.90;;;;;;5008544;28;20484;-58
2020/12/28 11:08:49;;;;;;;1.42;0.88;;;7.00;99.90;;;;;;4993884;28;20034;-57
2020/12/28 11:11:16;;;;;;;1.92;0.88;;;7.10;99.90;;;;;;4993346;28;20045;-56
2020/12/28 11:13:44;;;;;;;0.95;0.70;;;7.20;99.90;;;;;;4993683;28;20034;-57
2020/12/28 11:16:10;;;;;;;1.67;1.02;;;7.30;99.90;;;;;;4990469;28;20046;-57
2020/12/28 11:18:37;;;;;;;1.88;1.10;;;7.30;99.90;;;;;;4993457;28;20031;-55
2020/12/28 11:21:03;;;;;;;3.60;1.20;;;7.30;99.90;;;;;;5008370;28;20034;-56
2020/12/28 11:23:58;;;;;;;3.17;1.23;;;7.30;99.90;;;;;;4992749;28;20038;-54
2020/12/28 11:26:19;;;;;;;2.45;1.33;;;7.30;99.90;;;;;;4993033;28;20120;-56
2020/12/28 11:28:45;;;;;;;1.20;0.75;;;7.00;99.90;;;;;;4992975;28;20068;-56
2020/12/28 11:31:16;;;;;;;1.95;0.90;;;7.00;99.90;;;;;;4993427;28;20400;-57
2020/12/28 11:33:42;;;;;;;1.55;0.70;;;6.90;99.90;;;;;;4993227;28;20117;-57
2020/12/28 11:36:09;;;;;;;2.30;1.02;;;6.90;99.90;;;;;;4993180;28;20117;-57
2020/12/28 11:38:35;;;;;;;1.60;0.82;;;6.90;99.90;;;;;;4993026;28;20089;-53
2020/12/28 11:41:01;;;;;;;1.25;0.82;;;7.00;99.90;;;;;;4992780;28;20038;-56
2020/12/28 11:43:27;;;;;;;1.75;1.02;;;6.90;99.90;;;;;;4992607;28;20037;-57
2020/12/28 11:45:54;;;;;;;4.38;2.13;;;6.80;99.90;;;;;;4992932;28;20050;-57
2020/12/28 11:48:20;;;;;;;3.47;1.50;;;6.80;99.90;;;;;;4992568;28;20088;-56
2020/12/28 11:50:47;;;;;;;1.88;0.68;;;6.80;99.90;;;;;;4991781;28;20043;-57
2020/12/28 11:53:14;;;;;;;6.95;2.45;;;6.70;99.90;;;;;;4993102;28;20030;-57
2020/12/28 11:58:26;;;;;;;1.33;0.70;;;6.70;99.90;;;;;;4992596;28;20089;-56
2020/12/28 12:00:52;;;;;;;5.05;2.05;;;6.70;99.90;;;;;;4992982;28;20122;-56
2020/12/28 12:03:18;;;;;;;2.08;1.38;;;6.60;99.90;;;;;;4992936;28;20109;-56
2020/12/28 12:05:44;;;;;;;2.22;0.93;;;6.60;99.90;;;;;;4992734;28;20081;-57
2020/12/28 12:08:10;;;;;;;1.33;0.80;;;6.60;99.90;;;;;;4992837;28;20031;-57
2020/12/28 12:10:36;;;;;;;2.08;0.88;;;6.50;99.90;;;;;;4992652;28;20081;-57
2020/12/28 12:13:02;;;;;;;1.83;0.85;;;6.60;99.90;;;;;;4992784;28;20034;-57
2020/12/28 12:15:28;;;;;;;2.08;0.80;;;6.60;99.90;;;;;;4992690;28;20054;-57
2020/12/28 12:17:53;;;;;;;1.40;1.00;;;6.70;99.90;;;;;;4992189;28;20050;-57
2020/12/28 12:20:19;;;;;;;4.35;0.82;;;6.70;99.90;;;;;;4992686;28;20053;-57
2020/12/28 12:22:45;;;;;;;2.00;0.93;;;6.70;99.90;;;;;;4992642;28;20035;-55
2020/12/28 12:25:11;;;;;;;2.20;0.90;;;6.70;99.90;;;;;;4992624;28;20058;-56
2020/12/28 12:27:37;;;;;;;2.40;1.40;;;6.80;99.90;;;;;;4992415;28;20034;-57
2020/12/28 12:30:04;;;;;;;1.70;0.90;;;6.70;99.90;;;;;;4992621;28;20045;-57
2020/12/28 12:32:31;;;;;;;1.60;0.93;;;6.80;99.90;;;;;;4992274;28;20073;-57
2020/12/28 12:34:57;;;;;;;5.10;1.10;;;6.80;99.90;;;;;;4991926;28;20027;-56
2020/12/28 12:37:23;;;;;;;1.55;0.88;;;6.70;99.90;;;;;;4992326;28;20027;-56
2020/12/28 12:39:49;;;;;;;3.38;1.45;;;6.70;99.90;;;;;;4991960;28;20076;-55
2020/12/28 12:42:14;;;;;;;1.42;0.50;;;6.60;99.90;;;;;;4991474;28;20027;-57
2020/12/28 12:44:44;;;;;;;1.60;0.88;;;6.40;99.90;;;;;;4991682;28;20040;-56
2020/12/28 12:47:10;;;;;;;1.52;0.70;;;6.20;99.90;;;;;;4992444;28;20042;-56
2020/12/28 12:49:36;;;;;;;0.93;0.35;;;6.10;99.90;;;;;;4992259;28;20026;-56
2020/12/28 12:52:15;;;;;;;1.60;0.70;;;6.00;99.90;;;;;;4992570;28;20040;-57
2020/12/28 12:54:41;;;;;;;1.27;0.32;;;5.90;99.90;;;;;;4990981;28;20062;-56
2020/12/28 12:57:07;;;;;;;1.15;0.40;;;5.80;99.90;;;;;;4992302;28;20037;-57
2020/12/28 13:00:02;;;;;;;0.57;0.40;;;5.70;99.90;;;;;;4992232;28;20137;-55
2020/12/28 13:02:21;;;;;;;1.73;0.40;;;5.60;99.90;;;;;;4992024;28;20088;-56